createdAt,value
2023-02-28T00:01:09.950Z,53.40
2023-02-28T00:04:13.062Z,54.67
2023-02-28T00:07:16.412Z,53.97
2023-02-28T00:10:21.928Z,56.97
2023-02-28T00:13:26.812Z,56.30
2023-02-28T00:16:30.331Z,55.43
2023-02-28T00:19:33.862Z,60.07
2023-02-28T00:22:37.058Z,59.43
2023-02-28T00:25:40.328Z,57.80
2023-02-28T00:28:45.057Z,58.80
2023-02-28T00:31:48.445Z,58.50
2023-02-28T00:34:51.648Z,59.03
2023-02-28T00:37:54.852Z,59.03
2023-02-28T00:40:58.108Z,60.60
2023-02-28T00:44:02.618Z,59.90
2023-02-28T00:47:06.110Z,57.97
2023-02-28T00:50:10.523Z,58.23
2023-02-28T00:53:13.653Z,60.13
2023-02-28T00:56:16.859Z,58.57
2023-02-28T00:59:22.409Z,58.80
2023-02-28T01:02:26.012Z,57.80
2023-02-28T01:05:29.234Z,58.80
2023-02-28T01:08:32.333Z,58.20
2023-02-28T01:11:35.928Z,58.63
2023-02-28T01:14:40.524Z,58.70
2023-02-28T01:17:43.695Z,59.00
2023-02-28T01:20:47.393Z,56.47
2023-02-28T01:23:51.488Z,56.40
2023-02-28T01:26:54.556Z,58.33
2023-02-28T01:29:59.083Z,56.67
2023-02-28T01:33:02.254Z,58.00
2023-02-28T01:36:08.462Z,56.60
2023-02-28T01:39:11.540Z,58.27
2023-02-28T01:42:14.832Z,55.43
2023-02-28T01:45:25.795Z,55.70
2023-02-28T01:48:33.239Z,55.73
2023-02-28T01:51:46.643Z,57.23
2023-02-28T01:54:54.197Z,55.87
2023-02-28T01:58:00.324Z,53.70
2023-02-28T02:01:05.420Z,54.03
2023-02-28T02:04:08.531Z,53.87
2023-02-28T02:07:13.195Z,54.40
2023-02-28T02:10:18.264Z,55.10
2023-02-28T02:13:38.870Z,55.47
2023-02-28T02:16:56.497Z,53.20
2023-02-28T02:20:38.219Z,55.30
2023-02-28T02:24:16.969Z,54.70
2023-02-28T02:27:28.792Z,54.03
2023-02-28T02:30:57.205Z,54.17
2023-02-28T02:34:22.453Z,55.27
2023-02-28T02:37:33.357Z,54.43
2023-02-28T02:40:43.883Z,55.63
2023-02-28T02:43:52.209Z,54.33
2023-02-28T02:47:00.776Z,54.40
2023-02-28T02:50:09.468Z,55.47
2023-02-28T02:53:15.471Z,56.20
2023-02-28T02:56:21.836Z,56.27
2023-02-28T02:59:25.371Z,56.60
2023-02-28T03:02:35.473Z,56.00
2023-02-28T03:05:46.378Z,57.70
2023-02-28T03:08:50.755Z,56.80
2023-02-28T03:11:55.391Z,54.80
2023-02-28T03:15:10.183Z,56.07
2023-02-28T03:18:24.104Z,55.80
2023-02-28T03:21:36.255Z,57.37
2023-02-28T03:24:47.752Z,55.17
2023-02-28T03:28:03.169Z,53.37
2023-02-28T03:31:12.466Z,51.13
2023-02-28T03:34:19.813Z,53.50
2023-02-28T03:37:27.239Z,51.90
2023-02-28T03:40:34.545Z,52.80
2023-02-28T03:43:44.057Z,51.77
2023-02-28T03:46:51.694Z,50.90
2023-02-28T03:49:58.172Z,51.57
2023-02-28T03:53:06.225Z,52.83
2023-02-28T03:56:15.300Z,53.13
2023-02-28T03:59:23.681Z,52.10
2023-02-28T04:02:27.099Z,50.73
2023-02-28T04:05:31.732Z,49.37
2023-02-28T04:08:36.246Z,50.47
2023-02-28T04:11:40.970Z,34.13
2023-02-28T04:14:44.098Z,30.13
2023-02-28T04:17:47.236Z,29.60
2023-02-28T04:20:50.303Z,26.60
2023-02-28T04:23:55.037Z,25.10
2023-02-28T04:26:59.925Z,24.17
2023-02-28T04:30:03.043Z,25.37
2023-02-28T04:33:06.178Z,22.50
2023-02-28T04:36:11.113Z,21.37
2023-02-28T04:39:15.954Z,22.37
2023-02-28T04:42:19.053Z,23.80
2023-02-28T04:45:22.111Z,24.73
2023-02-28T04:48:25.933Z,26.00
2023-02-28T04:51:29.368Z,25.13
2023-02-28T04:54:33.988Z,23.50
2023-02-28T04:57:37.216Z,24.77
2023-02-28T05:00:40.470Z,21.70
2023-02-28T05:03:44.017Z,23.57
2023-02-28T05:06:47.360Z,20.50
2023-02-28T05:09:51.890Z,20.60
2023-02-28T05:12:55.012Z,20.00
2023-02-28T05:15:58.330Z,19.80
2023-02-28T05:19:01.781Z,19.33
2023-02-28T05:22:04.870Z,18.90
2023-02-28T05:25:13.672Z,19.47
2023-02-28T05:28:16.812Z,16.07
2023-02-28T05:31:20.046Z,16.40
2023-02-28T05:34:23.137Z,16.53
2023-02-28T05:37:26.200Z,15.23
2023-02-28T05:40:30.735Z,14.00
2023-02-28T05:43:33.880Z,13.53
2023-02-28T05:46:37.083Z,14.50
2023-02-28T05:49:40.244Z,13.67
2023-02-28T05:52:43.276Z,12.63
2023-02-28T05:55:47.776Z,13.00
2023-02-28T05:58:50.895Z,12.60
2023-02-28T06:01:54.363Z,12.90
2023-02-28T06:04:57.524Z,12.60
2023-02-28T06:08:00.898Z,12.73
2023-02-28T06:11:07.844Z,12.60
2023-02-28T06:14:16.973Z,12.17
2023-02-28T06:17:20.069Z,12.37
2023-02-28T06:20:23.158Z,11.87
2023-02-28T06:23:26.392Z,11.40
2023-02-28T06:26:30.963Z,11.37
2023-02-28T06:29:34.669Z,10.90
2023-02-28T06:32:37.971Z,12.20
2023-02-28T06:35:41.099Z,11.17
2023-02-28T06:38:44.947Z,11.07
2023-02-28T06:41:55.286Z,11.27
2023-02-28T06:44:59.053Z,10.90
2023-02-28T06:48:02.363Z,11.20
2023-02-28T06:51:07.937Z,11.57
2023-02-28T06:54:11.206Z,10.13
2023-02-28T06:57:15.722Z,10.20
2023-02-28T07:00:19.335Z,10.83
2023-02-28T07:03:24.224Z,9.77
2023-02-28T07:06:27.354Z,10.20
2023-02-28T07:09:31.222Z,9.30
2023-02-28T07:12:35.781Z,9.90
2023-02-28T07:15:42.344Z,9.43
2023-02-28T07:18:46.863Z,9.00
2023-02-28T07:21:50.193Z,9.50
2023-02-28T07:24:53.295Z,9.60
2023-02-28T07:28:00.114Z,9.13
2023-02-28T07:31:07.167Z,9.90
2023-02-28T07:34:10.265Z,9.27
2023-02-28T07:37:13.492Z,8.60
2023-02-28T07:40:19.068Z,9.60
2023-02-28T07:43:23.529Z,8.80
2023-02-28T07:46:28.419Z,9.17
2023-02-28T07:49:33.396Z,9.77
2023-02-28T07:52:36.900Z,8.97
2023-02-28T07:55:39.991Z,8.37
2023-02-28T07:58:44.507Z,8.03
2023-02-28T08:01:47.660Z,9.33
2023-02-28T08:04:51.567Z,8.90
2023-02-28T08:07:54.821Z,8.37
2023-02-28T08:10:57.971Z,7.90
2023-02-28T08:14:02.534Z,7.93
2023-02-28T08:17:05.712Z,8.43
2023-02-28T08:20:11.441Z,7.50
2023-02-28T08:23:14.609Z,7.80
2023-02-28T08:26:18.164Z,8.87
2023-02-28T08:29:22.743Z,7.90
2023-02-28T08:32:30.426Z,8.30
2023-02-28T08:35:33.851Z,8.10
2023-02-28T08:38:37.153Z,7.93
2023-02-28T08:41:40.332Z,8.00
2023-02-28T08:44:44.843Z,8.33
2023-02-28T08:47:48.041Z,8.00
2023-02-28T08:51:06.792Z,8.80
2023-02-28T08:54:13.502Z,7.60
2023-02-28T08:57:16.630Z,7.77
2023-02-28T09:00:22.669Z,7.47
2023-02-28T09:03:27.970Z,7.97
2023-02-28T09:06:31.572Z,7.00
2023-02-28T09:09:34.898Z,7.60
2023-02-28T09:12:37.992Z,6.90
2023-02-28T09:15:42.644Z,7.70
2023-02-28T09:18:46.553Z,7.40
2023-02-28T09:21:49.648Z,7.57
2023-02-28T09:24:52.777Z,7.10
2023-02-28T09:27:55.839Z,6.87
2023-02-28T09:31:00.781Z,6.90
2023-02-28T09:34:03.956Z,6.77
2023-02-28T09:37:07.247Z,7.60
2023-02-28T09:40:13.177Z,7.77
2023-02-28T09:43:19.971Z,6.20
2023-02-28T09:46:32.800Z,6.70
2023-02-28T09:49:42.196Z,6.70
2023-02-28T09:52:47.822Z,7.93
2023-02-28T09:55:54.154Z,7.10
2023-02-28T09:59:01.091Z,7.07
2023-02-28T10:02:20.071Z,7.07
2023-02-28T10:05:27.581Z,7.17
2023-02-28T10:08:34.701Z,6.33
2023-02-28T10:11:42.187Z,6.90
2023-02-28T10:14:49.091Z,6.80
2023-02-28T10:21:27.295Z,6.33
2023-02-28T10:24:50.358Z,7.20
2023-02-28T10:27:56.612Z,7.03
2023-02-28T10:31:00.729Z,7.40
2023-02-28T10:34:07.284Z,6.47
2023-02-28T10:37:11.812Z,7.10
2023-02-28T10:40:31.206Z,6.00
2023-02-28T10:43:34.521Z,6.00
2023-02-28T10:46:38.369Z,6.07
2023-02-28T10:49:50.391Z,6.20
2023-02-28T10:52:53.565Z,6.03
2023-02-28T10:56:01.930Z,6.13
2023-02-28T10:59:25.720Z,5.90
2023-02-28T11:02:35.337Z,6.43
2023-02-28T11:05:40.191Z,6.50
2023-02-28T11:08:53.192Z,5.83
2023-02-28T11:11:56.440Z,6.17
2023-02-28T11:15:02.882Z,6.70
2023-02-28T11:18:25.047Z,6.00
2023-02-28T11:21:34.647Z,6.00
2023-02-28T11:24:43.943Z,5.80
2023-02-28T11:27:50.711Z,5.80
2023-02-28T11:31:04.539Z,5.73
2023-02-28T11:34:26.275Z,5.67
2023-02-28T11:37:31.576Z,5.93
2023-02-28T11:40:45.752Z,6.60
2023-02-28T11:44:01.960Z,5.83
2023-02-28T11:47:14.164Z,6.00
2023-02-28T11:50:33.757Z,5.80
2023-02-28T11:54:07.232Z,5.93
2023-02-28T11:57:24.529Z,5.87
2023-02-28T12:00:41.180Z,5.93
2023-02-28T12:04:00.593Z,5.83
2023-02-28T12:07:12.157Z,5.50
2023-02-28T12:10:24.294Z,6.50
2023-02-28T12:13:33.795Z,5.87
2023-02-28T12:16:55.406Z,6.23
2023-02-28T12:20:10.313Z,5.97
2023-02-28T12:23:30.303Z,6.00
2023-02-28T12:26:41.758Z,6.43
2023-02-28T12:29:52.117Z,5.83
2023-02-28T12:32:59.273Z,6.70
2023-02-28T12:36:07.711Z,5.80
2023-02-28T12:39:17.097Z,6.13
2023-02-28T12:42:29.539Z,6.30
2023-02-28T12:45:43.240Z,6.27
2023-02-28T12:48:50.417Z,6.67
2023-02-28T12:51:55.131Z,5.90
2023-02-28T12:55:05.003Z,5.93
2023-02-28T12:58:19.820Z,6.03
2023-02-28T13:01:49.882Z,5.30
2023-02-28T13:05:19.220Z,5.77
2023-02-28T13:09:10.081Z,5.10
2023-02-28T13:12:17.713Z,5.67
2023-02-28T13:15:25.838Z,6.30
2023-02-28T13:18:37.398Z,6.27
2023-02-28T13:21:48.892Z,5.83
2023-02-28T13:24:54.115Z,5.57
2023-02-28T13:28:02.034Z,6.37
2023-02-28T13:31:08.633Z,5.90
2023-02-28T13:34:18.694Z,6.20
2023-02-28T13:37:45.058Z,5.93
2023-02-28T13:40:50.953Z,6.50
2023-02-28T13:44:14.412Z,5.80
2023-02-28T13:47:31.977Z,6.13
2023-02-28T13:50:39.005Z,6.30
2023-02-28T13:53:58.050Z,6.53
2023-02-28T13:57:24.349Z,5.73
2023-02-28T14:00:43.532Z,6.07
2023-02-28T14:04:05.567Z,5.93
2023-02-28T14:07:10.455Z,5.77
2023-02-28T14:10:26.282Z,6.17
2023-02-28T14:13:48.006Z,5.67
2023-02-28T14:16:52.190Z,5.53
2023-02-28T14:19:59.114Z,6.13
2023-02-28T14:23:10.101Z,5.80
2023-02-28T14:26:24.297Z,5.93
2023-02-28T14:29:45.165Z,6.87
2023-02-28T14:32:55.902Z,6.60
2023-02-28T14:36:16.889Z,6.20
2023-02-28T14:39:24.379Z,6.00
2023-02-28T14:42:34.252Z,5.97
2023-02-28T14:45:38.745Z,6.43
2023-02-28T14:48:42.176Z,5.13
2023-02-28T14:51:57.109Z,5.80
2023-02-28T14:55:05.319Z,6.20
2023-02-28T14:58:22.718Z,5.67
2023-02-28T15:01:27.780Z,6.47
2023-02-28T15:04:33.094Z,5.77
2023-02-28T15:07:37.887Z,6.33
2023-02-28T15:10:44.497Z,6.57
2023-02-28T15:13:50.431Z,5.57
2023-02-28T15:16:58.781Z,6.67
2023-02-28T15:20:02.709Z,5.70
2023-02-28T15:23:07.432Z,6.37
2023-02-28T15:26:15.374Z,5.97
2023-02-28T15:29:22.482Z,6.47
2023-02-28T15:32:32.150Z,5.70
2023-02-28T15:35:35.774Z,6.37
2023-02-28T15:38:40.278Z,6.00
2023-02-28T15:41:43.530Z,5.50
2023-02-28T15:44:47.411Z,6.30
2023-02-28T15:47:52.707Z,6.03
2023-02-28T15:50:58.385Z,5.30
2023-02-28T15:54:05.273Z,5.60
2023-02-28T15:57:16.053Z,5.60
2023-02-28T16:00:23.494Z,5.90
2023-02-28T16:03:28.673Z,5.20
2023-02-28T16:06:36.595Z,5.77
2023-02-28T16:09:43.544Z,4.73
2023-02-28T16:12:46.808Z,6.00
2023-02-28T16:15:52.469Z,5.43
2023-02-28T16:18:56.123Z,5.83
2023-02-28T16:21:59.532Z,5.23
2023-02-28T16:25:05.343Z,5.10
2023-02-28T16:28:14.791Z,5.30
2023-02-28T16:31:19.005Z,6.37
2023-02-28T16:34:22.410Z,9.87
2023-02-28T16:37:25.509Z,12.27
2023-02-28T16:40:30.783Z,11.33
2023-02-28T16:43:34.191Z,11.80
2023-02-28T16:46:38.689Z,11.30
2023-02-28T16:49:44.198Z,9.93
2023-02-28T16:52:47.558Z,21.47
2023-02-28T16:55:52.987Z,11.17
2023-02-28T16:59:00.306Z,10.80
2023-02-28T17:02:04.148Z,10.77
2023-02-28T17:05:08.629Z,7.60
2023-02-28T17:08:12.784Z,7.80
2023-02-28T17:11:17.521Z,8.50
2023-02-28T17:14:20.657Z,6.90
2023-02-28T17:17:24.260Z,5.60
2023-02-28T17:20:27.642Z,4.93
2023-02-28T17:23:30.849Z,4.77
2023-02-28T17:26:35.735Z,4.63
2023-02-28T17:29:38.857Z,4.23
2023-02-28T17:32:42.154Z,4.63
2023-02-28T17:35:45.374Z,4.50
2023-02-28T17:38:48.521Z,4.07
2023-02-28T17:41:53.610Z,4.63
2023-02-28T17:44:56.748Z,3.30
2023-02-28T17:47:59.902Z,4.50
2023-02-28T17:51:02.960Z,4.20
2023-02-28T17:54:06.261Z,3.27
2023-02-28T17:57:16.680Z,3.60
2023-02-28T18:00:20.688Z,3.73
2023-02-28T18:03:25.351Z,3.97
2023-02-28T18:06:33.102Z,4.27
2023-02-28T18:09:36.226Z,3.43
2023-02-28T18:12:40.755Z,3.30
2023-02-28T18:15:43.914Z,3.50
2023-02-28T18:18:47.746Z,3.37
2023-02-28T18:21:53.999Z,3.20
2023-02-28T18:24:57.236Z,3.10
2023-02-28T18:28:02.287Z,3.40
2023-02-28T18:31:09.026Z,2.80
2023-02-28T18:34:12.326Z,2.60
2023-02-28T18:37:16.227Z,3.13
2023-02-28T18:40:19.745Z,2.73
2023-02-28T18:43:24.656Z,2.63
2023-02-28T18:46:27.923Z,2.67
2023-02-28T18:49:34.151Z,2.37
2023-02-28T18:52:37.306Z,3.13
2023-02-28T18:55:40.467Z,2.13
2023-02-28T18:58:45.055Z,4.50
2023-02-28T19:01:48.241Z,2.60
2023-02-28T19:04:52.052Z,2.90
2023-02-28T19:07:55.148Z,2.20
2023-02-28T19:10:58.266Z,2.37
2023-02-28T19:14:03.070Z,2.50
2023-02-28T19:17:06.624Z,3.73
2023-02-28T19:20:11.323Z,2.63
2023-02-28T19:23:15.431Z,4.63
2023-02-28T19:26:21.066Z,2.57
2023-02-28T19:29:25.662Z,2.57
2023-02-28T19:32:29.062Z,2.73
2023-02-28T19:35:32.331Z,2.40
2023-02-28T19:38:35.510Z,2.67
2023-02-28T19:41:38.586Z,2.77
2023-02-28T19:44:43.345Z,2.63
2023-02-28T19:47:46.427Z,2.90
2023-02-28T19:50:49.583Z,3.30
2023-02-28T19:53:52.751Z,3.17
2023-02-28T19:56:57.766Z,2.90
2023-02-28T20:00:02.291Z,3.40
2023-02-28T20:03:05.544Z,2.63
2023-02-28T20:06:10.848Z,3.70
2023-02-28T20:09:13.977Z,3.13
2023-02-28T20:12:25.078Z,3.50
2023-02-28T20:15:30.173Z,2.97
2023-02-28T20:18:33.702Z,3.20
2023-02-28T20:21:37.177Z,3.43
2023-02-28T20:24:40.282Z,2.80
2023-02-28T20:27:43.359Z,3.57
2023-02-28T20:30:50.033Z,3.57
2023-02-28T20:33:53.989Z,3.63
2023-02-28T20:36:58.900Z,3.30
2023-02-28T20:40:04.488Z,4.00
2023-02-28T20:43:08.402Z,3.83
2023-02-28T20:46:13.866Z,3.90
2023-02-28T20:49:17.123Z,3.43
2023-02-28T20:52:20.283Z,3.77
2023-02-28T20:55:23.445Z,3.63
2023-02-28T20:58:28.747Z,3.60
2023-02-28T21:01:33.796Z,3.40
2023-02-28T21:04:36.949Z,3.60
2023-02-28T21:07:40.084Z,3.73
2023-02-28T21:10:43.252Z,4.73
2023-02-28T21:13:47.598Z,3.57
2023-02-28T21:16:52.053Z,3.40
2023-02-28T21:19:55.307Z,3.67
2023-02-28T21:22:58.478Z,4.03
2023-02-28T21:26:05.592Z,4.00
2023-02-28T21:29:09.135Z,3.83
2023-02-28T21:32:14.703Z,4.30
2023-02-28T21:35:17.970Z,4.20
2023-02-28T21:38:22.422Z,4.23
2023-02-28T21:41:26.729Z,4.43
2023-02-28T21:44:30.061Z,4.70
2023-02-28T21:47:34.775Z,4.83
2023-02-28T21:50:37.942Z,6.33
2023-02-28T21:53:42.841Z,4.50
2023-02-28T21:56:45.889Z,5.27
2023-02-28T21:59:48.996Z,4.47
2023-02-28T22:02:53.495Z,5.00
2023-02-28T22:05:56.696Z,4.17
2023-02-28T22:09:06.035Z,4.20
2023-02-28T22:12:09.365Z,4.93
2023-02-28T22:15:13.488Z,4.90
2023-02-28T22:18:18.093Z,4.77
2023-02-28T22:21:22.685Z,5.20
2023-02-28T22:24:25.907Z,5.80
2023-02-28T22:27:29.070Z,4.63
2023-02-28T22:30:32.202Z,5.10
2023-02-28T22:33:36.809Z,4.60
2023-02-28T22:36:42.062Z,4.77
2023-02-28T22:39:45.824Z,5.07
2023-02-28T22:42:48.985Z,4.67
2023-02-28T22:45:52.151Z,4.30
2023-02-28T22:48:56.747Z,4.87
2023-02-28T22:51:59.851Z,4.30
2023-02-28T22:55:02.971Z,4.57
2023-02-28T22:58:06.248Z,4.07
2023-02-28T23:01:11.250Z,4.43
2023-02-28T23:04:15.929Z,3.90
2023-02-28T23:07:19.047Z,4.40
2023-02-28T23:10:22.374Z,4.60
2023-02-28T23:13:25.556Z,3.70
2023-02-28T23:16:30.742Z,3.40
2023-02-28T23:19:35.491Z,4.07
2023-02-28T23:22:38.579Z,4.13
2023-02-28T23:25:42.477Z,3.60
2023-02-28T23:28:45.952Z,3.50
2023-02-28T23:31:50.161Z,3.20
2023-02-28T23:34:55.364Z,3.40
2023-02-28T23:37:59.369Z,3.33
2023-02-28T23:41:02.484Z,4.10
2023-02-28T23:44:05.630Z,3.30
2023-02-28T23:47:08.690Z,3.03
2023-02-28T23:50:13.659Z,3.40
2023-02-28T23:53:16.815Z,3.03
2023-02-28T23:56:22.880Z,3.37
2023-02-28T23:59:26.413Z,2.57
